createdAt,value
2023-10-02T00:02:34.558Z,87.72
2023-10-02T00:05:07.403Z,87.80
2023-10-02T00:07:37.084Z,87.82
2023-10-02T00:10:07.446Z,88.03
2023-10-02T00:12:36.358Z,87.74
2023-10-02T00:15:13.591Z,87.78
2023-10-02T00:17:46.220Z,87.44
2023-10-02T00:20:22.939Z,88.18
2023-10-02T00:22:52.311Z,88.15
2023-10-02T00:25:28.758Z,87.75
2023-10-02T00:28:01.223Z,87.88
2023-10-02T00:30:37.857Z,87.77
2023-10-02T00:33:13.067Z,87.81
2023-10-02T00:35:52.902Z,88.25
2023-10-02T00:38:21.712Z,87.76
2023-10-02T00:40:50.118Z,87.57
2023-10-02T00:43:41.577Z,87.88
2023-10-02T00:46:24.774Z,88.37
2023-10-02T00:48:54.329Z,88.86
2023-10-02T00:51:23.143Z,88.48
2023-10-02T00:53:55.214Z,88.53
2023-10-02T00:56:25.267Z,88.69
2023-10-02T00:59:00.247Z,88.31
2023-10-02T01:01:31.058Z,88.48
2023-10-02T01:04:12.684Z,88.13
2023-10-02T01:07:06.070Z,88.22
2023-10-02T01:09:36.334Z,87.69
2023-10-02T01:12:07.237Z,88.12
2023-10-02T01:14:52.320Z,88.02
2023-10-02T01:17:23.503Z,87.80
2023-10-02T01:19:59.109Z,87.91
2023-10-02T01:22:29.862Z,87.95
2023-10-02T01:25:15.624Z,87.91
2023-10-02T01:27:48.838Z,88.10
2023-10-02T01:30:18.437Z,88.28
2023-10-02T01:33:13.343Z,88.56
2023-10-02T01:35:50.746Z,89.05
2023-10-02T01:38:31.025Z,88.85
2023-10-02T01:41:06.115Z,89.21
2023-10-02T01:43:40.844Z,89.32
2023-10-02T01:46:10.141Z,89.63
2023-10-02T01:48:41.736Z,89.20
2023-10-02T01:51:27.568Z,89.72
2023-10-02T01:53:58.773Z,89.86
2023-10-02T01:56:30.853Z,90.17
2023-10-02T01:59:12.136Z,90.24
2023-10-02T02:01:54.165Z,89.84
2023-10-02T02:04:26.016Z,89.55
2023-10-02T02:06:56.443Z,89.24
2023-10-02T02:09:26.348Z,88.93
2023-10-02T02:12:17.204Z,89.09
2023-10-02T02:14:53.033Z,88.70
2023-10-02T02:17:26.715Z,88.01
2023-10-02T02:19:55.955Z,87.94
2023-10-02T02:22:27.574Z,87.40
2023-10-02T02:24:59.850Z,86.93
2023-10-02T02:27:30.364Z,87.01
2023-10-02T02:29:59.442Z,86.97
2023-10-02T02:32:46.245Z,86.48
2023-10-02T02:35:16.921Z,86.19
2023-10-02T02:37:45.934Z,86.03
2023-10-02T02:40:27.873Z,86.10
2023-10-02T02:43:00.024Z,85.39
2023-10-02T02:45:30.825Z,85.18
2023-10-02T02:48:06.126Z,84.95
2023-10-02T02:50:37.097Z,84.83
2023-10-02T02:53:23.420Z,84.96
2023-10-02T02:56:16.336Z,84.87
2023-10-02T02:58:49.731Z,85.14
2023-10-02T03:01:24.518Z,84.84
2023-10-02T03:03:53.948Z,84.60
2023-10-02T03:06:24.773Z,84.35
2023-10-02T03:08:54.177Z,84.19
2023-10-02T03:11:30.407Z,84.25
2023-10-02T03:14:13.901Z,83.73
2023-10-02T03:16:46.409Z,83.86
2023-10-02T03:19:17.764Z,83.53
2023-10-02T03:21:48.704Z,83.84
2023-10-02T03:24:20.692Z,83.57
2023-10-02T03:26:54.847Z,83.82
2023-10-02T03:29:25.504Z,83.73
2023-10-02T03:31:54.521Z,83.70
2023-10-02T03:34:29.807Z,83.66
2023-10-02T03:37:02.671Z,83.66
2023-10-02T03:39:49.340Z,83.34
2023-10-02T03:42:23.642Z,83.33
2023-10-02T03:44:55.793Z,83.49
2023-10-02T03:47:25.128Z,83.56
2023-10-02T03:50:01.922Z,83.15
2023-10-02T03:52:32.185Z,83.38
2023-10-02T03:55:15.706Z,83.37
2023-10-02T03:57:52.385Z,83.35
2023-10-02T04:00:27.270Z,83.45
2023-10-02T04:02:58.465Z,83.63
2023-10-02T04:05:35.375Z,83.61
2023-10-02T04:08:23.564Z,83.10
2023-10-02T04:10:57.632Z,83.59
2023-10-02T04:13:28.844Z,83.39
2023-10-02T04:16:13.019Z,83.76
2023-10-02T04:19:00.307Z,84.33
2023-10-02T04:21:30.367Z,84.77
2023-10-02T04:23:59.267Z,84.81
2023-10-02T04:26:30.514Z,85.43
2023-10-02T04:29:14.823Z,85.76
2023-10-02T04:31:46.127Z,85.94
2023-10-02T04:34:25.213Z,85.99
2023-10-02T04:36:54.590Z,85.75
2023-10-02T04:39:41.016Z,86.06
2023-10-02T04:42:16.026Z,86.15
2023-10-02T04:44:48.844Z,86.49
2023-10-02T04:47:20.685Z,86.51
2023-10-02T04:50:08.274Z,86.16
2023-10-02T04:52:59.070Z,85.67
2023-10-02T04:55:32.790Z,85.79
2023-10-02T04:58:05.875Z,85.59
2023-10-02T05:00:37.566Z,85.13
2023-10-02T05:03:11.285Z,84.36
2023-10-02T05:05:43.551Z,84.93
2023-10-02T05:08:20.421Z,84.91
2023-10-02T05:10:51.406Z,84.77
2023-10-02T05:13:40.333Z,84.79
2023-10-02T05:16:12.583Z,84.88
2023-10-02T05:18:48.897Z,84.42
2023-10-02T05:21:18.965Z,84.15
2023-10-02T05:23:58.201Z,83.84
2023-10-02T05:26:35.956Z,83.76
2023-10-02T05:29:09.772Z,83.21
2023-10-02T05:31:42.717Z,83.12
2023-10-02T05:34:23.284Z,82.81
2023-10-02T05:37:14.073Z,82.26
2023-10-02T05:39:43.744Z,82.09
2023-10-02T05:42:15.257Z,81.74
2023-10-02T05:44:45.551Z,81.72
2023-10-02T05:47:17.796Z,81.09
2023-10-02T05:49:51.083Z,80.71
2023-10-02T05:52:22.128Z,80.56
2023-10-02T05:54:55.482Z,79.94
2023-10-02T05:57:30.207Z,80.14
2023-10-02T06:00:01.786Z,79.57
2023-10-02T06:02:34.063Z,79.92
2023-10-02T06:05:13.487Z,80.21
2023-10-02T06:07:45.211Z,80.27
2023-10-02T06:10:27.175Z,80.49
2023-10-02T06:13:04.935Z,80.69
2023-10-02T06:15:48.677Z,80.65
2023-10-02T06:18:26.362Z,81.04
2023-10-02T06:21:03.268Z,80.73
2023-10-02T06:23:39.201Z,80.47
2023-10-02T06:26:11.316Z,80.91
2023-10-02T06:28:40.928Z,80.80
2023-10-02T06:31:10.195Z,80.66
2023-10-02T06:33:39.317Z,80.30
2023-10-02T06:36:10.631Z,79.71
2023-10-02T06:38:39.546Z,80.12
2023-10-02T06:41:14.595Z,80.58
2023-10-02T06:43:43.369Z,79.95
2023-10-02T06:46:15.325Z,79.95
2023-10-02T06:48:45.644Z,79.47
2023-10-02T06:51:15.819Z,78.62
2023-10-02T06:53:45.139Z,78.50
2023-10-02T06:56:14.873Z,77.81
2023-10-02T06:58:58.777Z,78.15
2023-10-02T07:01:29.591Z,77.21
2023-10-02T07:04:10.767Z,76.23
2023-10-02T07:06:41.405Z,75.54
2023-10-02T07:09:14.060Z,75.42
2023-10-02T07:11:44.589Z,75.63
2023-10-02T07:14:13.985Z,76.04
2023-10-02T07:16:43.876Z,75.43
2023-10-02T07:19:13.443Z,75.36
2023-10-02T07:21:44.210Z,75.07
2023-10-02T07:24:29.665Z,74.49
2023-10-02T07:27:00.794Z,74.45
2023-10-02T07:29:40.610Z,73.53
2023-10-02T07:32:12.449Z,73.67
2023-10-02T07:34:40.896Z,73.25
2023-10-02T07:37:14.694Z,73.63
2023-10-02T07:39:43.884Z,74.16
2023-10-02T07:42:13.087Z,73.84
2023-10-02T07:44:42.735Z,73.75
2023-10-02T07:47:19.534Z,73.43
2023-10-02T07:49:51.305Z,72.19
2023-10-02T07:52:39.642Z,70.56
2023-10-02T07:55:12.389Z,68.03
2023-10-02T07:57:41.499Z,65.64
2023-10-02T08:00:31.842Z,64.72
2023-10-02T08:03:03.972Z,64.41
2023-10-02T08:05:35.710Z,63.32
2023-10-02T08:08:10.720Z,64.12
2023-10-02T08:10:51.594Z,62.44
2023-10-02T08:13:33.765Z,64.21
2023-10-02T08:16:06.124Z,62.62
2023-10-02T08:18:35.070Z,61.22
2023-10-02T08:21:05.461Z,60.86
2023-10-02T08:23:35.758Z,58.91
2023-10-02T08:26:25.330Z,59.12
2023-10-02T08:28:55.263Z,56.39
2023-10-02T08:31:29.326Z,57.69
2023-10-02T08:34:11.455Z,56.96
2023-10-02T08:36:43.575Z,56.42
2023-10-02T08:41:52.398Z,55.08
2023-10-02T08:44:24.005Z,54.56
2023-10-02T08:46:56.782Z,54.33
2023-10-02T08:49:27.712Z,54.62
2023-10-02T08:51:58.765Z,54.04
2023-10-02T08:54:30.688Z,53.74
2023-10-02T08:57:08.340Z,54.87
2023-10-02T08:59:43.965Z,54.57
2023-10-02T09:02:15.930Z,55.20
2023-10-02T09:05:11.391Z,54.01
2023-10-02T09:08:02.676Z,54.17
2023-10-02T09:10:42.567Z,52.50
2023-10-02T09:13:16.048Z,50.96
2023-10-02T09:15:48.180Z,50.94
2023-10-02T09:18:35.734Z,49.08
2023-10-02T09:21:15.626Z,48.52
2023-10-02T09:23:53.330Z,47.13
2023-10-02T09:26:26.781Z,43.13
2023-10-02T09:29:02.892Z,45.08
2023-10-02T09:31:34.680Z,43.05
2023-10-02T09:34:22.841Z,40.46
2023-10-02T09:37:42.988Z,39.06
2023-10-02T09:40:16.091Z,37.97
2023-10-02T09:42:49.861Z,32.44
2023-10-02T09:45:32.739Z,32.23
2023-10-02T09:48:07.361Z,32.16
2023-10-02T09:50:42.602Z,32.61
2023-10-02T09:53:12.563Z,31.98
2023-10-02T09:55:57.708Z,30.61
2023-10-02T09:58:38.847Z,29.74
2023-10-02T10:01:38.917Z,28.30
2023-10-02T10:04:21.688Z,33.18
2023-10-02T10:07:08.375Z,32.79
2023-10-02T10:09:51.118Z,29.65
2023-10-02T10:12:33.461Z,33.00
2023-10-02T10:15:25.983Z,33.21
2023-10-02T10:17:58.150Z,31.68
2023-10-02T10:20:29.066Z,30.84
2023-10-02T10:22:58.006Z,29.39
2023-10-02T10:25:46.554Z,29.47
2023-10-02T10:28:29.066Z,31.49
2023-10-02T10:31:03.584Z,31.24
2023-10-02T10:33:36.888Z,29.37
2023-10-02T10:36:43.371Z,28.87
2023-10-02T10:39:53.580Z,31.11
2023-10-02T10:42:25.401Z,28.04
2023-10-02T10:44:58.580Z,27.72
2023-10-02T10:47:41.143Z,26.03
2023-10-02T10:50:23.995Z,23.87
2023-10-02T10:53:02.641Z,25.23
2023-10-02T10:55:34.959Z,23.12
2023-10-02T11:00:40.681Z,23.94
2023-10-02T11:03:13.139Z,24.31
2023-10-02T11:05:42.521Z,23.27
2023-10-02T11:08:26.816Z,23.98
2023-10-02T11:11:07.920Z,28.41
2023-10-02T11:13:54.564Z,28.74
2023-10-02T11:16:35.788Z,30.21
2023-10-02T11:19:36.384Z,28.34
2023-10-02T11:22:16.374Z,26.52
2023-10-02T11:24:49.837Z,25.36
2023-10-02T11:27:19.497Z,24.46
2023-10-02T11:30:03.023Z,22.96
2023-10-02T11:33:01.644Z,23.53
2023-10-02T11:35:31.358Z,23.33
2023-10-02T11:38:02.645Z,23.74
2023-10-02T11:40:34.129Z,27.24
2023-10-02T11:43:03.501Z,26.68
2023-10-02T11:45:34.185Z,30.17
2023-10-02T11:48:03.243Z,28.63
2023-10-02T11:50:32.250Z,28.18
2023-10-02T11:53:01.940Z,27.20
2023-10-02T11:55:30.360Z,26.37
2023-10-02T11:58:00.697Z,27.65
2023-10-02T12:00:29.762Z,27.39
2023-10-02T12:03:01.224Z,28.10
2023-10-02T12:05:31.705Z,28.89
2023-10-02T12:08:01.073Z,27.60
2023-10-02T12:10:30.185Z,25.50
2023-10-02T12:13:03.484Z,25.48
2023-10-02T12:15:32.515Z,30.53
2023-10-02T12:18:02.417Z,29.99
2023-10-02T12:20:32.145Z,28.25
2023-10-02T12:23:01.848Z,27.22
2023-10-02T12:25:30.925Z,24.98
2023-10-02T12:28:02.064Z,23.08
2023-10-02T12:30:36.021Z,24.19
2023-10-02T12:33:05.945Z,22.95
2023-10-02T12:35:35.445Z,29.31
2023-10-02T12:38:04.770Z,34.62
2023-10-02T12:40:35.404Z,33.48
2023-10-02T12:43:06.538Z,33.02
2023-10-02T12:45:37.742Z,32.92
2023-10-02T12:48:08.775Z,34.59
2023-10-02T12:50:41.406Z,33.29
2023-10-02T12:53:12.467Z,31.87
2023-10-02T12:55:44.673Z,32.66
2023-10-02T12:58:15.650Z,31.36
2023-10-02T13:00:44.569Z,29.21
2023-10-02T13:03:13.562Z,28.76
2023-10-02T13:05:44.204Z,27.42
2023-10-02T13:08:13.217Z,27.69
2023-10-02T13:10:43.358Z,26.66
2023-10-02T13:13:13.243Z,28.46
2023-10-02T13:15:43.896Z,28.27
2023-10-02T13:18:13.157Z,27.25
2023-10-02T13:20:42.125Z,28.22
2023-10-02T13:23:11.131Z,31.24
2023-10-02T13:25:41.240Z,32.13
2023-10-02T13:28:13.078Z,31.20
2023-10-02T13:30:44.059Z,31.64
2023-10-02T13:33:14.304Z,30.01
2023-10-02T13:35:45.602Z,31.01
2023-10-02T13:38:15.257Z,33.64
2023-10-02T13:40:43.755Z,33.71
2023-10-02T13:43:13.049Z,33.73
2023-10-02T13:45:47.036Z,34.71
2023-10-02T13:48:17.768Z,35.54
2023-10-02T13:51:02.492Z,37.82
2023-10-02T13:53:33.973Z,38.94
2023-10-02T13:56:10.419Z,39.46
2023-10-02T13:58:40.416Z,40.68
2023-10-02T14:01:10.662Z,40.95
2023-10-02T14:03:39.366Z,40.64
2023-10-02T14:06:09.659Z,41.13
2023-10-02T14:08:40.728Z,41.51
2023-10-02T14:11:10.191Z,41.43
2023-10-02T14:13:39.059Z,41.91
2023-10-02T14:16:08.803Z,42.97
2023-10-02T14:18:40.063Z,44.02
2023-10-02T14:21:10.804Z,44.23
2023-10-02T14:23:40.423Z,44.60
2023-10-02T14:26:10.541Z,44.99
2023-10-02T14:28:38.978Z,45.29
2023-10-02T14:31:08.995Z,45.89
2023-10-02T14:33:42.156Z,46.47
2023-10-02T14:36:11.276Z,46.29
2023-10-02T14:38:40.933Z,46.57
2023-10-02T14:41:10.702Z,46.72
2023-10-02T14:43:39.351Z,47.32
2023-10-02T14:46:08.504Z,47.78
2023-10-02T14:48:46.726Z,48.22
2023-10-02T14:51:19.195Z,49.00
2023-10-02T14:53:48.209Z,49.11
2023-10-02T14:56:17.268Z,49.07
2023-10-02T14:58:49.379Z,49.41
2023-10-02T15:01:20.413Z,49.38
2023-10-02T15:03:50.576Z,49.46
2023-10-02T15:06:20.868Z,49.87
2023-10-02T15:08:49.507Z,49.96
2023-10-02T15:11:19.628Z,50.37
2023-10-02T15:13:48.302Z,50.52
2023-10-02T15:16:17.356Z,50.53
2023-10-02T15:18:48.238Z,51.21
2023-10-02T15:21:18.399Z,51.47
2023-10-02T15:23:49.739Z,52.03
2023-10-02T15:26:20.060Z,52.33
2023-10-02T15:28:50.475Z,52.85
2023-10-02T15:31:19.971Z,53.01
2023-10-02T15:33:48.816Z,53.72
2023-10-02T15:36:18.953Z,54.01
2023-10-02T15:38:50.253Z,54.25
2023-10-02T15:41:28.824Z,54.62
2023-10-02T15:43:59.028Z,54.74
2023-10-02T15:46:28.282Z,55.10
2023-10-02T15:48:57.193Z,54.92
2023-10-02T15:51:26.601Z,55.39
2023-10-02T15:53:57.507Z,55.55
2023-10-02T15:56:28.886Z,56.16
2023-10-02T15:58:57.478Z,56.36
2023-10-02T16:01:26.948Z,56.63
2023-10-02T16:03:56.084Z,56.80
2023-10-02T16:06:25.331Z,57.08
2023-10-02T16:08:55.617Z,57.44
2023-10-02T16:11:27.439Z,57.32
2023-10-02T16:13:57.772Z,57.71
2023-10-02T16:16:26.735Z,57.76
2023-10-02T16:18:55.569Z,57.55
2023-10-02T16:21:26.724Z,57.78
2023-10-02T16:23:55.549Z,58.31
2023-10-02T16:26:26.005Z,58.37
2023-10-02T16:28:54.450Z,58.75
2023-10-02T16:31:26.881Z,58.65
2023-10-02T16:33:56.328Z,59.15
2023-10-02T16:36:26.525Z,59.75
2023-10-02T16:41:31.248Z,59.35
2023-10-02T16:44:00.325Z,59.63
2023-10-02T16:46:29.258Z,59.91
2023-10-02T16:48:58.412Z,60.20
2023-10-02T16:51:27.289Z,60.56
2023-10-02T16:53:56.816Z,60.25
2023-10-02T16:56:25.766Z,60.78
2023-10-02T16:58:55.892Z,60.53
2023-10-02T17:01:24.844Z,60.71
2023-10-02T17:03:55.387Z,60.73
2023-10-02T17:06:27.404Z,60.89
2023-10-02T17:08:56.280Z,60.73
2023-10-02T17:11:28.338Z,60.96
2023-10-02T17:13:58.271Z,61.03
2023-10-02T17:16:26.884Z,61.00
2023-10-02T17:18:55.753Z,60.76
2023-10-02T17:21:31.560Z,61.18
2023-10-02T17:24:01.673Z,61.61
2023-10-02T17:26:31.814Z,61.66
2023-10-02T17:29:04.036Z,61.61
2023-10-02T17:31:32.834Z,61.88
2023-10-02T17:34:01.792Z,62.35
2023-10-02T17:36:31.075Z,62.82
2023-10-02T17:39:01.006Z,63.14
2023-10-02T17:41:30.065Z,63.39
2023-10-02T17:43:58.917Z,63.51
2023-10-02T17:46:28.978Z,63.84
2023-10-02T17:48:57.793Z,63.84
2023-10-02T17:51:27.020Z,63.52
2023-10-02T17:53:56.395Z,64.06
2023-10-02T17:56:26.979Z,64.32
2023-10-02T17:58:56.242Z,64.42
2023-10-02T18:01:25.050Z,64.51
2023-10-02T18:03:55.463Z,64.33
2023-10-02T18:06:24.314Z,64.79
2023-10-02T18:08:53.320Z,65.00
2023-10-02T18:11:26.492Z,65.39
2023-10-02T18:13:55.058Z,65.45
2023-10-02T18:16:24.457Z,65.52
2023-10-02T18:18:54.976Z,65.67
2023-10-02T18:21:23.760Z,65.90
2023-10-02T18:23:53.021Z,65.61
2023-10-02T18:26:22.337Z,65.78
2023-10-02T18:28:50.710Z,65.45
2023-10-02T18:31:19.758Z,65.75
2023-10-02T18:33:48.757Z,65.58
2023-10-02T18:36:18.973Z,65.78
2023-10-02T18:38:47.618Z,65.89
2023-10-02T18:41:17.837Z,66.03
2023-10-02T18:43:47.130Z,65.94
2023-10-02T18:46:16.165Z,66.54
2023-10-02T18:48:45.813Z,66.35
2023-10-02T18:51:20.137Z,66.44
2023-10-02T18:53:53.203Z,66.67
2023-10-02T18:56:22.416Z,66.89
2023-10-02T18:58:50.829Z,67.00
2023-10-02T19:01:20.007Z,67.02
2023-10-02T19:03:48.988Z,67.43
2023-10-02T19:06:20.383Z,67.93
2023-10-02T19:08:49.511Z,68.10
2023-10-02T19:11:20.081Z,68.02
2023-10-02T19:13:48.548Z,68.38
2023-10-02T19:16:18.576Z,68.64
2023-10-02T19:18:47.792Z,68.90
2023-10-02T19:21:18.136Z,69.04
2023-10-02T19:23:46.986Z,69.13
2023-10-02T19:26:16.090Z,69.63
2023-10-02T19:28:44.602Z,69.54
2023-10-02T19:31:13.736Z,69.80
2023-10-02T19:33:42.762Z,70.09
2023-10-02T19:36:11.586Z,70.31
2023-10-02T19:38:44.135Z,70.50
2023-10-02T19:41:16.040Z,70.68
2023-10-02T19:43:45.264Z,70.85
2023-10-02T19:46:14.204Z,70.70
2023-10-02T19:48:43.214Z,70.79
2023-10-02T19:51:14.986Z,70.72
2023-10-02T19:53:45.752Z,70.87
2023-10-02T19:56:15.364Z,70.92
2023-10-02T19:58:43.743Z,71.08
2023-10-02T20:01:12.834Z,71.43
2023-10-02T20:03:41.722Z,71.46
2023-10-02T20:06:11.939Z,71.93
2023-10-02T20:08:42.419Z,71.91
2023-10-02T20:11:12.858Z,72.64
2023-10-02T20:13:41.905Z,72.71
2023-10-02T20:16:10.908Z,73.06
2023-10-02T20:18:39.799Z,72.98
2023-10-02T20:21:08.876Z,73.15
2023-10-02T20:23:51.531Z,73.57
2023-10-02T20:26:22.421Z,73.95
2023-10-02T20:28:50.921Z,74.01
2023-10-02T20:31:19.762Z,74.37
2023-10-02T20:33:49.402Z,74.53
2023-10-02T20:36:18.279Z,74.79
2023-10-02T20:38:47.042Z,74.81
2023-10-02T20:41:15.876Z,74.81
2023-10-02T20:43:45.561Z,74.86
2023-10-02T20:46:15.429Z,75.12
2023-10-02T20:48:44.405Z,75.49
2023-10-02T20:51:15.522Z,75.55
2023-10-02T20:53:45.121Z,75.82
2023-10-02T20:56:14.097Z,76.18
2023-10-02T20:58:42.442Z,76.14
2023-10-02T21:01:14.307Z,76.12
2023-10-02T21:03:43.998Z,76.44
2023-10-02T21:06:12.844Z,76.53
2023-10-02T21:08:41.817Z,76.78
2023-10-02T21:11:10.588Z,77.21
2023-10-02T21:13:39.035Z,77.67
2023-10-02T21:16:07.787Z,77.92
2023-10-02T21:18:39.018Z,78.16
2023-10-02T21:21:08.830Z,78.31
2023-10-02T21:23:38.908Z,78.24
2023-10-02T21:26:08.328Z,78.26
2023-10-02T21:28:37.016Z,78.58
2023-10-02T21:31:05.821Z,78.56
2023-10-02T21:33:34.738Z,78.46
2023-10-02T21:36:07.095Z,78.30
2023-10-02T21:38:36.825Z,78.30
2023-10-02T21:41:12.526Z,78.22
2023-10-02T21:43:41.682Z,78.34
2023-10-02T21:46:10.793Z,78.27
2023-10-02T21:48:40.631Z,78.23
2023-10-02T21:51:12.253Z,78.46
2023-10-02T21:53:41.845Z,78.41
2023-10-02T21:56:17.220Z,78.51
2023-10-02T21:58:45.964Z,78.47
2023-10-02T22:01:14.869Z,78.48
2023-10-02T22:03:44.142Z,78.04
2023-10-02T22:06:14.557Z,78.08
2023-10-02T22:08:43.433Z,78.15
2023-10-02T22:11:12.303Z,78.20
2023-10-02T22:13:42.069Z,78.26
2023-10-02T22:16:13.359Z,78.00
2023-10-02T22:18:43.818Z,78.05
2023-10-02T22:21:21.310Z,78.05
2023-10-02T22:23:50.927Z,78.30
2023-10-02T22:26:21.002Z,78.46
2023-10-02T22:28:49.416Z,78.52
2023-10-02T22:31:18.321Z,78.62
2023-10-02T22:33:48.524Z,78.76
2023-10-02T22:36:18.992Z,78.80
2023-10-02T22:38:47.655Z,78.59
2023-10-02T22:41:16.571Z,78.58
2023-10-02T22:43:45.003Z,78.59
2023-10-02T22:46:13.793Z,78.85
2023-10-02T22:48:42.593Z,78.80
2023-10-02T22:51:14.403Z,78.54
2023-10-02T22:53:45.434Z,78.75
2023-10-02T22:56:14.963Z,78.85
2023-10-02T22:58:43.877Z,78.82
2023-10-02T23:01:12.766Z,78.74
2023-10-02T23:03:41.703Z,79.04
2023-10-02T23:06:12.321Z,78.70
2023-10-02T23:08:41.364Z,78.77
2023-10-02T23:11:15.200Z,78.74
2023-10-02T23:13:43.623Z,78.85
2023-10-02T23:16:13.388Z,78.82
2023-10-02T23:18:42.238Z,78.92
2023-10-02T23:21:11.037Z,79.22
2023-10-02T23:23:40.921Z,79.32
2023-10-02T23:26:18.650Z,79.30
2023-10-02T23:28:47.758Z,79.48
2023-10-02T23:31:16.594Z,79.43
2023-10-02T23:33:46.113Z,80.06
2023-10-02T23:36:14.970Z,79.99
2023-10-02T23:38:44.331Z,79.79
2023-10-02T23:41:14.034Z,80.06
2023-10-02T23:43:46.269Z,79.93
2023-10-02T23:46:16.306Z,80.24
2023-10-02T23:48:46.715Z,80.41
2023-10-02T23:51:15.619Z,80.26
2023-10-02T23:53:43.409Z,80.57
2023-10-02T23:56:15.270Z,80.69
2023-10-02T23:58:45.579Z,80.61
